createdAt,value
2018-05-31T00:03:34.474Z,81.87
2018-05-31T00:09:38.843Z,81.59
2018-05-31T00:15:43.253Z,80.41
2018-05-31T00:21:48.414Z,81.02
2018-05-31T00:27:53.472Z,81.32
2018-05-31T00:33:58.679Z,80.07
2018-05-31T00:40:03.181Z,80.74
2018-05-31T00:46:07.576Z,81.38
2018-05-31T00:52:12.102Z,81.16
2018-05-31T00:58:16.484Z,80.85
2018-05-31T01:04:20.856Z,81.93
2018-05-31T01:10:25.354Z,82.33
2018-05-31T01:16:29.766Z,82.23
2018-05-31T01:22:34.355Z,82.03
2018-05-31T01:28:38.855Z,82.41
2018-05-31T01:34:44.042Z,83.83
2018-05-31T01:40:48.435Z,84.20
2018-05-31T01:46:52.968Z,83.42
2018-05-31T01:52:57.329Z,83.11
2018-05-31T01:59:01.704Z,82.36
2018-05-31T02:05:06.189Z,82.58
2018-05-31T02:11:10.752Z,82.67
2018-05-31T02:17:15.201Z,82.03
2018-05-31T02:23:20.553Z,82.00
2018-05-31T02:29:25.480Z,83.68
2018-05-31T02:35:30.625Z,83.77
2018-05-31T02:41:35.036Z,84.89
2018-05-31T02:47:39.787Z,84.29
2018-05-31T02:53:44.784Z,84.19
2018-05-31T02:59:50.820Z,85.21
2018-05-31T03:05:55.410Z,83.94
2018-05-31T03:11:59.851Z,83.68
2018-05-31T03:18:05.075Z,82.55
2018-05-31T03:24:09.562Z,82.33
2018-05-31T03:30:14.116Z,83.01
2018-05-31T03:36:18.507Z,83.04
2018-05-31T03:42:23.021Z,82.83
2018-05-31T03:48:27.588Z,82.80
2018-05-31T03:54:32.191Z,84.85
2018-05-31T04:00:36.573Z,84.77
2018-05-31T04:06:40.993Z,84.20
2018-05-31T04:12:46.156Z,83.42
2018-05-31T04:18:50.539Z,83.71
2018-05-31T04:24:55.579Z,83.79
2018-05-31T04:31:00.075Z,83.13
2018-05-31T04:37:04.526Z,81.64
2018-05-31T04:43:09.654Z,82.23
2018-05-31T04:49:14.028Z,82.17
2018-05-31T04:55:18.403Z,81.94
2018-05-31T05:01:23.993Z,82.21
2018-05-31T05:07:28.701Z,82.13
2018-05-31T05:13:33.091Z,81.38
2018-05-31T05:19:37.953Z,81.51
2018-05-31T05:25:42.316Z,80.78
2018-05-31T05:31:46.740Z,78.65
2018-05-31T05:37:52.541Z,79.49
2018-05-31T05:43:56.906Z,78.75
2018-05-31T05:50:01.278Z,78.24
2018-05-31T05:56:05.689Z,77.53
2018-05-31T06:02:10.963Z,76.13
2018-05-31T06:08:16.116Z,75.04
2018-05-31T06:14:20.764Z,75.01
2018-05-31T06:20:25.940Z,74.04
2018-05-31T06:26:30.623Z,73.31
2018-05-31T06:32:34.785Z,68.61
2018-05-31T06:38:39.160Z,68.54
2018-05-31T06:44:43.530Z,67.02
2018-05-31T06:50:47.907Z,65.21
2018-05-31T06:56:52.996Z,64.56
2018-05-31T07:02:57.380Z,62.32
2018-05-31T07:09:01.709Z,60.73
2018-05-31T07:15:06.125Z,62.18
2018-05-31T07:21:10.563Z,61.19
2018-05-31T07:27:14.992Z,60.40
2018-05-31T07:33:20.527Z,59.39
2018-05-31T07:39:26.594Z,57.87
2018-05-31T07:45:30.941Z,58.21
2018-05-31T07:51:35.325Z,56.67
2018-05-31T07:57:39.678Z,54.75
2018-05-31T08:03:44.479Z,53.05
2018-05-31T08:09:48.828Z,53.26
2018-05-31T08:15:53.341Z,51.43
2018-05-31T08:21:57.734Z,51.22
2018-05-31T08:28:02.048Z,50.19
2018-05-31T08:34:06.469Z,52.16
2018-05-31T08:40:10.839Z,48.75
2018-05-31T08:46:15.190Z,45.56
2018-05-31T08:52:19.574Z,48.41
2018-05-31T08:58:24.101Z,48.77
2018-05-31T09:04:29.221Z,48.00
2018-05-31T09:10:33.693Z,46.73
2018-05-31T09:16:38.054Z,45.47
2018-05-31T09:22:43.136Z,45.04
2018-05-31T09:28:47.520Z,43.01
2018-05-31T09:34:53.139Z,45.34
2018-05-31T09:40:57.678Z,43.47
2018-05-31T09:47:02.037Z,43.90
2018-05-31T09:53:06.393Z,43.41
2018-05-31T09:59:10.733Z,40.98
2018-05-31T10:05:15.881Z,37.60
2018-05-31T10:11:20.260Z,37.39
2018-05-31T10:17:24.769Z,39.16
2018-05-31T10:23:29.921Z,39.19
2018-05-31T10:29:34.259Z,37.74
2018-05-31T10:35:38.828Z,35.51
2018-05-31T10:41:43.220Z,38.11
2018-05-31T10:47:47.569Z,31.88
2018-05-31T10:53:52.865Z,33.84
2018-05-31T10:59:57.311Z,32.51
2018-05-31T11:06:01.654Z,33.97
2018-05-31T11:12:05.992Z,32.86
2018-05-31T11:18:11.119Z,34.08
2018-05-31T11:24:15.473Z,35.39
2018-05-31T11:30:20.535Z,35.25
2018-05-31T11:36:24.953Z,32.98
2018-05-31T11:42:29.303Z,31.65
2018-05-31T11:48:34.385Z,32.35
2018-05-31T11:54:38.764Z,28.52
2018-05-31T12:00:43.083Z,27.39
2018-05-31T12:06:47.456Z,29.97
2018-05-31T12:12:52.830Z,29.61
2018-05-31T12:18:57.337Z,28.51
2018-05-31T12:25:01.686Z,27.14
2018-05-31T12:31:06.032Z,28.21
2018-05-31T12:37:10.377Z,29.20
2018-05-31T12:43:14.728Z,26.05
2018-05-31T12:49:19.124Z,25.87
2018-05-31T12:55:23.598Z,30.26
2018-05-31T13:01:27.961Z,27.70
2018-05-31T13:07:32.271Z,26.11
2018-05-31T13:13:37.506Z,23.85
2018-05-31T13:19:41.858Z,25.18
2018-05-31T13:25:46.997Z,27.30
2018-05-31T13:31:51.783Z,32.38
2018-05-31T13:37:56.130Z,32.59
2018-05-31T13:44:00.491Z,29.92
2018-05-31T13:50:05.629Z,27.61
2018-05-31T13:56:09.969Z,27.95
2018-05-31T14:02:14.323Z,28.44
2018-05-31T14:08:19.441Z,28.10
2018-05-31T14:14:23.810Z,26.21
2018-05-31T14:20:28.172Z,27.03
2018-05-31T14:26:33.294Z,28.65
2018-05-31T14:32:37.657Z,30.44
2018-05-31T14:38:42.026Z,32.73
2018-05-31T14:44:46.375Z,34.53
2018-05-31T14:50:51.496Z,38.12
2018-05-31T14:56:55.864Z,37.93
2018-05-31T15:03:00.221Z,41.99
2018-05-31T15:09:07.999Z,42.34
2018-05-31T15:15:12.341Z,43.38
2018-05-31T15:21:16.838Z,44.42
2018-05-31T15:27:21.253Z,44.35
2018-05-31T15:33:25.689Z,45.35
2018-05-31T15:39:30.806Z,45.99
2018-05-31T15:45:35.161Z,45.01
2018-05-31T15:51:40.291Z,42.45
2018-05-31T15:57:44.651Z,42.09
2018-05-31T16:03:48.961Z,42.11
2018-05-31T16:09:53.395Z,43.11
2018-05-31T16:15:57.761Z,43.55
2018-05-31T16:22:02.863Z,41.79
2018-05-31T16:28:07.224Z,43.00
2018-05-31T16:34:11.567Z,43.91
2018-05-31T16:40:15.912Z,44.53
2018-05-31T16:46:20.254Z,47.38
2018-05-31T16:52:24.625Z,48.25
2018-05-31T16:58:28.955Z,48.00
2018-05-31T17:04:33.314Z,50.92
2018-05-31T17:10:37.657Z,50.64
2018-05-31T17:16:42.026Z,49.06
2018-05-31T17:22:47.119Z,50.50
2018-05-31T17:28:51.472Z,53.11
2018-05-31T17:34:56.577Z,54.10
2018-05-31T17:41:00.923Z,53.62
2018-05-31T17:47:05.284Z,52.93
2018-05-31T17:53:10.442Z,52.16
2018-05-31T17:59:14.771Z,53.06
2018-05-31T18:05:19.154Z,52.58
2018-05-31T18:11:24.305Z,53.50
2018-05-31T18:17:28.645Z,56.87
2018-05-31T18:23:33.006Z,56.15
2018-05-31T18:29:38.107Z,56.76
2018-05-31T18:35:42.453Z,57.59
2018-05-31T18:41:47.567Z,59.02
2018-05-31T18:47:52.874Z,60.99
2018-05-31T18:53:57.284Z,61.83
2018-05-31T19:00:01.658Z,63.02
2018-05-31T19:06:06.879Z,61.89
2018-05-31T19:12:11.236Z,61.89
2018-05-31T19:18:21.442Z,62.58
2018-05-31T19:24:32.170Z,64.35
2018-05-31T19:30:41.984Z,64.53
2018-05-31T19:36:53.359Z,65.75
2018-05-31T19:43:03.463Z,64.49
2018-05-31T19:49:08.631Z,65.10
2018-05-31T19:55:12.973Z,66.37
2018-05-31T20:01:23.177Z,66.92
2018-05-31T20:07:27.580Z,66.48
2018-05-31T20:13:31.929Z,66.78
2018-05-31T20:19:36.289Z,66.68
2018-05-31T20:25:40.656Z,67.24
2018-05-31T20:31:45.366Z,66.86
2018-05-31T20:37:49.731Z,68.29
2018-05-31T20:43:54.277Z,68.81
2018-05-31T20:49:59.408Z,69.23
2018-05-31T20:56:03.781Z,69.24
2018-05-31T21:02:08.128Z,69.70
2018-05-31T21:08:12.489Z,70.36
2018-05-31T21:14:17.613Z,70.22
2018-05-31T21:20:22.052Z,70.74
2018-05-31T21:26:26.408Z,70.74
2018-05-31T21:32:30.788Z,70.18
2018-05-31T21:38:35.150Z,70.81
2018-05-31T21:44:39.526Z,71.39
2018-05-31T21:50:43.875Z,71.99
2018-05-31T21:56:48.292Z,71.76
2018-05-31T22:02:53.560Z,72.42
2018-05-31T22:08:57.912Z,72.20
2018-05-31T22:15:02.269Z,72.43
2018-05-31T22:21:06.631Z,72.72
2018-05-31T22:27:11.749Z,72.16
2018-05-31T22:33:16.103Z,72.32
2018-05-31T22:39:21.240Z,72.58
2018-05-31T22:45:25.589Z,72.73
2018-05-31T22:51:29.985Z,73.42
2018-05-31T22:57:34.333Z,73.73
2018-05-31T23:03:38.658Z,75.05
2018-05-31T23:09:43.046Z,74.75
2018-05-31T23:15:48.182Z,74.45
2018-05-31T23:34:57.591Z,76.07
2018-05-31T23:41:02.720Z,76.39
2018-05-31T23:47:07.076Z,76.60
2018-05-31T23:53:11.426Z,76.25
2018-05-31T23:59:16.609Z,76.26
